createdAt,value
2024-02-04T00:02:16.005Z,102516.03
2024-02-04T00:04:43.676Z,102522.34
2024-02-04T00:07:11.167Z,102517.00
2024-02-04T00:09:39.185Z,102517.84
2024-02-04T00:12:07.481Z,102521.44
2024-02-04T00:14:34.884Z,102532.72
2024-02-04T00:17:02.340Z,102517.06
2024-02-04T00:19:29.758Z,102523.03
2024-02-04T00:21:57.211Z,102524.06
2024-02-04T00:24:24.698Z,102523.09
2024-02-04T00:26:52.153Z,102520.41
2024-02-04T00:29:19.545Z,102522.19
2024-02-04T00:31:46.889Z,102523.94
2024-02-04T00:34:14.338Z,102519.63
2024-02-04T00:36:41.943Z,102518.81
2024-02-04T00:39:09.842Z,102526.63
2024-02-04T00:41:37.353Z,102528.28
2024-02-04T00:44:04.798Z,102516.09
2024-02-04T00:46:32.201Z,102527.53
2024-02-04T00:48:59.676Z,102522.41
2024-02-04T00:51:27.174Z,102518.81
2024-02-04T00:53:54.513Z,102517.13
2024-02-04T00:56:21.846Z,102519.63
2024-02-04T00:58:49.240Z,102510.09
2024-02-04T01:01:16.653Z,102510.91
2024-02-04T01:03:44.155Z,102512.59
2024-02-04T01:06:11.655Z,102510.78
2024-02-04T01:08:39.183Z,102501.16
2024-02-04T01:11:07.877Z,102488.84
2024-02-04T01:13:35.675Z,102484.50
2024-02-04T01:16:03.115Z,102485.25
2024-02-04T01:18:32.707Z,102479.16
2024-02-04T01:21:01.649Z,102479.09
2024-02-04T01:23:29.008Z,102487.97
2024-02-04T01:25:56.312Z,102487.06
2024-02-04T01:28:23.620Z,102497.63
2024-02-04T01:30:50.995Z,102503.59
2024-02-04T01:33:18.573Z,102494.03
2024-02-04T01:35:46.641Z,102487.13
2024-02-04T01:38:14.062Z,102493.09
2024-02-04T01:40:41.922Z,102494.03
2024-02-04T01:43:09.358Z,102499.31
2024-02-04T01:45:36.793Z,102494.13
2024-02-04T01:48:05.367Z,102494.25
2024-02-04T01:50:32.823Z,102493.34
2024-02-04T01:53:00.581Z,102500.53
2024-02-04T01:55:27.962Z,102498.47
2024-02-04T01:57:55.454Z,102497.38
2024-02-04T02:00:23.181Z,102499.25
2024-02-04T02:02:53.370Z,102498.34
2024-02-04T02:05:20.848Z,102504.25
2024-02-04T02:07:52.219Z,102478.72
2024-02-04T02:10:21.197Z,102487.56
2024-02-04T02:12:57.947Z,102489.22
2024-02-04T02:15:33.289Z,102488.28
2024-02-04T02:18:19.303Z,102492.75
2024-02-04T02:21:15.737Z,102499.75
2024-02-04T02:23:59.547Z,102492.66
2024-02-04T02:26:27.120Z,102497.78
2024-02-04T02:28:54.436Z,102493.66
2024-02-04T02:31:25.215Z,102498.63
2024-02-04T02:33:59.254Z,102491.50
2024-02-04T02:36:30.595Z,102485.22
2024-02-04T02:39:06.635Z,102500.16
2024-02-04T02:41:35.435Z,102487.78
2024-02-04T02:44:04.117Z,102500.91
2024-02-04T02:46:31.600Z,102493.22
2024-02-04T02:48:59.459Z,102493.16
2024-02-04T02:51:26.841Z,102494.19
2024-02-04T02:53:54.257Z,102489.69
2024-02-04T02:56:21.598Z,102490.59
2024-02-04T02:58:48.964Z,102487.19
2024-02-04T03:01:16.511Z,102485.47
2024-02-04T03:03:43.943Z,102485.47
2024-02-04T03:06:11.371Z,102489.13
2024-02-04T03:08:38.675Z,102476.81
2024-02-04T03:11:07.069Z,102475.78
2024-02-04T03:13:34.420Z,102481.03
2024-02-04T03:16:01.929Z,102489.91
2024-02-04T03:18:29.368Z,102475.03
2024-02-04T03:20:56.802Z,102459.19
2024-02-04T03:23:24.106Z,102449.78
2024-02-04T03:25:51.501Z,102475.09
2024-02-04T03:28:20.228Z,102478.56
2024-02-04T03:30:47.603Z,102462.66
2024-02-04T03:33:15.689Z,102462.72
2024-02-04T03:35:43.124Z,102468.88
2024-02-04T03:38:10.531Z,102453.22
2024-02-04T03:40:37.806Z,102458.34
2024-02-04T03:43:05.378Z,102461.88
2024-02-04T03:45:32.765Z,102459.25
2024-02-04T03:48:00.245Z,102458.34
2024-02-04T03:50:27.603Z,102468.94
2024-02-04T03:52:55.014Z,102474.19
2024-02-04T03:55:22.356Z,102471.44
2024-02-04T03:57:49.770Z,102462.00
2024-02-04T04:00:17.483Z,102472.47
2024-02-04T04:02:44.775Z,102469.84
2024-02-04T04:05:15.143Z,102451.59
2024-02-04T04:07:42.787Z,102450.75
2024-02-04T04:10:10.391Z,102452.63
2024-02-04T04:12:37.743Z,102463.19
2024-02-04T04:15:05.617Z,102464.88
2024-02-04T04:17:32.989Z,102460.56
2024-02-04T04:20:00.462Z,102470.44
2024-02-04T04:22:27.889Z,102453.72
2024-02-04T04:24:55.325Z,102456.47
2024-02-04T04:27:22.699Z,102458.19
2024-02-04T04:29:50.169Z,102452.81
2024-02-04T04:32:17.574Z,102447.56
2024-02-04T04:34:44.943Z,102432.53
2024-02-04T04:37:12.290Z,102423.75
2024-02-04T04:39:39.635Z,102420.22
2024-02-04T04:42:07.132Z,102421.97
2024-02-04T04:44:34.511Z,102414.91
2024-02-04T04:47:01.814Z,102421.91
2024-02-04T04:49:29.167Z,102426.25
2024-02-04T04:51:56.700Z,102418.50
2024-02-04T04:54:24.486Z,102422.03
2024-02-04T04:56:51.891Z,102409.59
2024-02-04T04:59:19.390Z,102408.81
2024-02-04T05:01:48.579Z,102425.63
2024-02-04T05:04:17.811Z,102411.38
2024-02-04T05:06:45.331Z,102414.22
2024-02-04T05:09:12.812Z,102424.72
2024-02-04T05:11:40.130Z,102416.78
2024-02-04T05:14:07.414Z,102416.72
2024-02-04T05:16:37.016Z,102411.31
2024-02-04T05:19:04.840Z,102421.97
2024-02-04T05:21:32.261Z,102425.44
2024-02-04T05:23:59.695Z,102413.19
2024-02-04T05:26:27.065Z,102417.53
2024-02-04T05:28:54.537Z,102422.03
2024-02-04T05:31:21.857Z,102421.13
2024-02-04T05:33:49.261Z,102420.22
2024-02-04T05:36:17.440Z,102419.22
2024-02-04T05:38:47.253Z,102420.16
2024-02-04T05:41:14.691Z,102429.09
2024-02-04T05:43:41.999Z,102429.78
2024-02-04T05:46:09.469Z,102424.47
2024-02-04T05:48:37.244Z,102423.56
2024-02-04T05:51:04.884Z,102421.13
2024-02-04T05:53:32.307Z,102413.94
2024-02-04T05:55:59.633Z,102403.38
2024-02-04T05:58:26.954Z,102398.91
2024-02-04T06:00:54.354Z,102406.91
2024-02-04T06:03:21.737Z,102403.44
2024-02-04T06:05:49.198Z,102406.91
2024-02-04T06:08:16.551Z,102406.00
2024-02-04T06:10:43.862Z,102409.53
2024-02-04T06:13:11.241Z,102408.69
2024-02-04T06:15:38.635Z,102399.84
2024-02-04T06:18:06.469Z,102389.22
2024-02-04T06:20:33.883Z,102380.66
2024-02-04T06:23:02.067Z,102385.72
2024-02-04T06:25:29.604Z,102396.38
2024-02-04T06:27:57.293Z,102402.47
2024-02-04T06:30:24.828Z,102396.28
2024-02-04T06:32:52.417Z,102403.28
2024-02-04T06:35:19.852Z,102406.72
2024-02-04T06:37:47.244Z,102403.28
2024-02-04T06:40:14.678Z,102397.13
2024-02-04T06:42:42.181Z,102387.50
2024-02-04T06:45:10.056Z,102384.81
2024-02-04T06:47:37.538Z,102372.00
2024-02-04T06:50:06.583Z,102382.25
2024-02-04T06:52:33.930Z,102383.25
2024-02-04T06:55:01.433Z,102391.13
2024-02-04T06:57:28.977Z,102386.69
2024-02-04T06:59:56.359Z,102390.28
2024-02-04T07:02:23.765Z,102394.59
2024-02-04T07:04:54.744Z,102402.47
2024-02-04T07:07:22.461Z,102398.84
2024-02-04T07:09:49.995Z,102402.31
2024-02-04T07:12:17.676Z,102397.06
2024-02-04T07:14:45.073Z,102406.91
2024-02-04T07:17:12.950Z,102393.81
2024-02-04T07:19:40.715Z,102395.47
2024-02-04T07:22:08.549Z,102389.22
2024-02-04T07:24:36.666Z,102391.84
2024-02-04T07:27:04.340Z,102390.13
2024-02-04T07:29:31.818Z,102397.13
2024-02-04T07:31:59.615Z,102392.63
2024-02-04T07:34:27.215Z,102390.06
2024-02-04T07:36:54.794Z,102385.72
2024-02-04T07:39:22.177Z,102391.19
2024-02-04T07:41:49.652Z,102386.75
2024-02-04T07:44:17.046Z,102386.75
2024-02-04T07:46:44.678Z,102382.53
2024-02-04T07:49:12.119Z,102379.84
2024-02-04T07:51:39.664Z,102386.81
2024-02-04T07:54:07.036Z,102377.28
2024-02-04T07:56:34.521Z,102378.16
2024-02-04T07:59:04.099Z,102375.47
2024-02-04T08:01:32.058Z,102376.38
2024-02-04T08:03:59.675Z,102377.41
2024-02-04T08:06:27.225Z,102368.53
2024-02-04T08:08:54.608Z,102350.19
2024-02-04T08:11:22.748Z,102358.16
2024-02-04T08:13:50.096Z,102353.03
2024-02-04T08:16:17.510Z,102356.47
2024-02-04T08:18:45.109Z,102353.97
2024-02-04T08:21:12.698Z,102362.63
2024-02-04T08:23:41.027Z,102364.38
2024-02-04T08:26:10.148Z,102356.59
2024-02-04T08:28:37.559Z,102364.56
2024-02-04T08:31:05.131Z,102376.69
2024-02-04T08:33:32.900Z,102382.00
2024-02-04T08:36:00.659Z,102379.44
2024-02-04T08:38:28.075Z,102370.72
2024-02-04T08:40:55.392Z,102381.09
2024-02-04T08:43:22.774Z,102375.84
2024-02-04T08:45:50.203Z,102384.81
2024-02-04T08:48:17.563Z,102381.22
2024-02-04T08:50:44.919Z,102375.19
2024-02-04T08:53:12.434Z,102383.03
2024-02-04T08:55:40.269Z,102386.63
2024-02-04T08:58:07.715Z,102391.09
2024-02-04T09:00:35.189Z,102380.59
2024-02-04T09:03:02.840Z,102385.06
2024-02-04T09:05:30.218Z,102380.69
2024-02-04T09:07:57.754Z,102380.84
2024-02-04T09:10:25.106Z,102391.28
2024-02-04T09:12:52.498Z,102391.44
2024-02-04T09:15:19.989Z,102373.03
2024-02-04T09:17:47.413Z,102372.97
2024-02-04T09:20:16.624Z,102371.34
2024-02-04T09:22:44.281Z,102374.00
2024-02-04T09:25:11.945Z,102352.16
2024-02-04T09:27:39.515Z,102354.84
2024-02-04T09:30:07.671Z,102361.91
2024-02-04T09:32:35.549Z,102362.03
2024-02-04T09:35:04.441Z,102362.09
2024-02-04T09:37:31.973Z,102359.59
2024-02-04T09:39:59.840Z,102349.94
2024-02-04T09:42:29.308Z,102344.75
2024-02-04T09:44:56.915Z,102346.38
2024-02-04T09:47:24.303Z,102349.13
2024-02-04T09:49:53.664Z,102354.44
2024-02-04T09:52:28.720Z,102361.31
2024-02-04T09:55:02.924Z,102371.91
2024-02-04T09:57:35.782Z,102378.94
2024-02-04T10:00:07.098Z,102373.63
2024-02-04T10:02:34.922Z,102376.25
2024-02-04T10:05:04.101Z,102376.38
2024-02-04T10:07:31.809Z,102364.00
2024-02-04T10:09:59.326Z,102359.59
2024-02-04T10:12:26.906Z,102352.59
2024-02-04T10:14:54.356Z,102350.91
2024-02-04T10:17:22.572Z,102351.63
2024-02-04T10:19:50.408Z,102351.69
2024-02-04T10:22:18.593Z,102366.81
2024-02-04T10:24:48.211Z,102356.22
2024-02-04T10:27:26.214Z,102350.25
2024-02-04T10:29:57.708Z,102355.56
2024-02-04T10:32:25.994Z,102351.97
2024-02-04T10:34:53.806Z,102358.34
2024-02-04T10:37:21.247Z,102369.75
2024-02-04T10:39:48.800Z,102366.34
2024-02-04T10:42:18.759Z,102363.66
2024-02-04T10:44:50.263Z,102361.03
2024-02-04T10:47:23.058Z,102355.03
2024-02-04T10:49:56.124Z,102354.19
2024-02-04T10:52:34.089Z,102354.19
2024-02-04T10:55:01.643Z,102355.09
2024-02-04T10:57:31.570Z,102347.31
2024-02-04T11:00:00.524Z,102348.22
2024-02-04T11:02:28.521Z,102356.09
2024-02-04T11:04:56.914Z,102351.78
2024-02-04T11:07:24.631Z,102344.75
2024-02-04T11:09:53.820Z,102346.66
2024-02-04T11:12:23.220Z,102347.72
2024-02-04T11:14:54.665Z,102346.09
2024-02-04T11:17:31.467Z,102349.69
2024-02-04T11:20:06.967Z,102348.03
2024-02-04T11:22:49.154Z,102336.78
2024-02-04T11:25:39.032Z,102316.63
2024-02-04T11:28:06.955Z,102321.88
2024-02-04T11:30:36.779Z,102302.56
2024-02-04T11:33:08.633Z,102316.66
2024-02-04T11:35:37.578Z,102329.16
2024-02-04T11:38:05.929Z,102314.25
2024-02-04T11:40:37.574Z,102311.75
2024-02-04T11:43:15.487Z,102301.25
2024-02-04T11:45:44.336Z,102297.78
2024-02-04T11:48:12.669Z,102290.03
2024-02-04T11:50:41.588Z,102287.41
2024-02-04T11:53:14.089Z,102294.63
2024-02-04T11:55:45.271Z,102292.13
2024-02-04T11:58:14.402Z,102289.56
2024-02-04T12:00:45.788Z,102283.50
2024-02-04T12:03:13.335Z,102296.00
2024-02-04T12:05:41.093Z,102285.50
2024-02-04T12:08:09.662Z,102288.34
2024-02-04T12:10:37.930Z,102280.69
2024-02-04T12:13:08.045Z,102277.25
2024-02-04T12:15:40.316Z,102277.25
2024-02-04T12:18:11.781Z,102287.78
2024-02-04T12:20:40.018Z,102277.31
2024-02-04T12:23:08.752Z,102270.31
2024-02-04T12:25:37.797Z,102282.59
2024-02-04T12:28:06.677Z,102278.31
2024-02-04T12:30:35.017Z,102283.69
2024-02-04T12:33:05.412Z,102274.97
2024-02-04T12:35:33.789Z,102268.97
2024-02-04T12:38:01.822Z,102280.56
2024-02-04T12:40:31.374Z,102275.56
2024-02-04T12:43:06.266Z,102260.75
2024-02-04T12:45:34.750Z,102263.53
2024-02-04T12:48:04.172Z,102259.91
2024-02-04T12:50:34.260Z,102259.91
2024-02-04T12:53:06.743Z,102274.88
2024-02-04T12:55:36.779Z,102264.31
2024-02-04T12:58:09.757Z,102267.16
2024-02-04T13:00:38.436Z,102261.94
2024-02-04T13:03:07.406Z,102253.09
2024-02-04T13:05:35.338Z,102255.97
2024-02-04T13:08:04.987Z,102231.38
2024-02-04T13:10:35.638Z,102252.56
2024-02-04T13:13:11.263Z,102245.47
2024-02-04T13:15:44.258Z,102249.00
2024-02-04T13:18:13.336Z,102255.19
2024-02-04T13:20:41.887Z,102234.06
2024-02-04T13:23:12.907Z,102246.34
2024-02-04T13:25:40.578Z,102231.38
2024-02-04T13:28:08.094Z,102231.38
2024-02-04T13:30:35.589Z,102234.97
2024-02-04T13:33:03.885Z,102247.16
2024-02-04T13:35:31.752Z,102221.72
2024-02-04T13:37:59.337Z,102223.47
2024-02-04T13:40:27.001Z,102218.19
2024-02-04T13:42:54.583Z,102220.13
2024-02-04T13:45:23.590Z,102220.94
2024-02-04T13:47:51.281Z,102218.38
2024-02-04T13:50:18.846Z,102224.41
2024-02-04T13:52:46.380Z,102220.03
2024-02-04T13:55:13.870Z,102227.19
2024-02-04T13:57:41.666Z,102222.63
2024-02-04T14:00:09.760Z,102228.91
2024-02-04T14:02:39.365Z,102227.25
2024-02-04T14:05:07.294Z,102222.88
2024-02-04T14:07:34.770Z,102221.91
2024-02-04T14:10:02.565Z,102215.88
2024-02-04T14:12:30.619Z,102205.44
2024-02-04T14:14:58.611Z,102215.97
2024-02-04T14:17:25.964Z,102211.53
2024-02-04T14:19:53.495Z,102210.63
2024-02-04T14:22:21.716Z,102200.03
2024-02-04T14:24:50.208Z,102199.25
2024-02-04T14:27:17.600Z,102193.91
2024-02-04T14:29:45.046Z,102188.81
2024-02-04T14:32:12.404Z,102178.13
2024-02-04T14:34:39.926Z,102193.13
2024-02-04T14:37:09.522Z,102180.97
2024-02-04T14:39:38.380Z,102174.84
2024-02-04T14:42:05.942Z,102169.59
2024-02-04T14:44:33.718Z,102170.44
2024-02-04T14:47:01.187Z,102162.53
2024-02-04T14:49:31.018Z,102157.22
2024-02-04T14:51:59.058Z,102165.09
2024-02-04T14:54:28.240Z,102167.69
2024-02-04T14:56:55.853Z,102164.88
2024-02-04T14:59:23.581Z,102169.28
2024-02-04T15:01:51.988Z,102171.94
2024-02-04T15:04:20.432Z,102166.59
2024-02-04T15:06:52.640Z,102167.50
2024-02-04T15:09:21.115Z,102170.13
2024-02-04T15:11:48.801Z,102157.63
2024-02-04T15:14:17.991Z,102155.97
2024-02-04T15:16:45.619Z,102156.88
2024-02-04T15:19:13.417Z,102161.25
2024-02-04T15:21:41.070Z,102150.53
2024-02-04T15:24:09.412Z,102154.03
2024-02-04T15:26:41.399Z,102156.66
2024-02-04T15:29:10.719Z,102156.63
2024-02-04T15:31:38.239Z,102153.13
2024-02-04T15:34:07.110Z,102157.59
2024-02-04T15:36:34.804Z,102171.50
2024-02-04T15:39:04.113Z,102163.53
2024-02-04T15:41:33.323Z,102165.28
2024-02-04T15:44:00.763Z,102165.38
2024-02-04T15:46:30.602Z,102158.22
2024-02-04T15:49:02.509Z,102159.09
2024-02-04T15:51:30.390Z,102166.03
2024-02-04T15:53:58.087Z,102169.56
2024-02-04T15:56:27.894Z,102164.19
2024-02-04T15:59:14.512Z,102173.91
2024-02-04T16:01:42.486Z,102167.63
2024-02-04T16:04:11.155Z,102172.09
2024-02-04T16:06:40.211Z,102168.53
2024-02-04T16:09:09.502Z,102160.47
2024-02-04T16:11:49.487Z,102152.53
2024-02-04T16:14:17.136Z,102154.31
2024-02-04T16:16:47.036Z,102152.53
2024-02-04T16:19:15.709Z,102148.06
2024-02-04T16:21:45.409Z,102142.78
2024-02-04T16:24:12.888Z,102142.66
2024-02-04T16:26:40.288Z,102154.13
2024-02-04T16:29:07.716Z,102157.56
2024-02-04T16:31:35.050Z,102157.53
2024-02-04T16:34:02.537Z,102149.63
2024-02-04T16:36:30.128Z,102135.56
2024-02-04T16:38:57.569Z,102135.50
2024-02-04T16:41:24.901Z,102127.59
2024-02-04T16:43:52.365Z,102119.50
2024-02-04T16:46:20.169Z,102114.31
2024-02-04T16:48:47.729Z,102109.06
2024-02-04T16:51:15.268Z,102112.53
2024-02-04T16:53:42.699Z,102108.13
2024-02-04T16:56:10.363Z,102101.84
2024-02-04T16:58:37.731Z,102108.97
2024-02-04T17:01:05.892Z,102110.72
2024-02-04T17:03:33.919Z,102112.31
2024-02-04T17:06:01.729Z,102116.72
2024-02-04T17:08:29.444Z,102108.88
2024-02-04T17:10:57.284Z,102115.84
2024-02-04T17:13:25.877Z,102116.63
2024-02-04T17:15:54.543Z,102122.03
2024-02-04T17:18:40.535Z,102121.19
2024-02-04T17:21:11.576Z,102129.00
2024-02-04T17:23:41.513Z,102131.66
2024-02-04T17:26:11.473Z,102129.81
2024-02-04T17:28:39.135Z,102134.28
2024-02-04T17:31:07.102Z,102137.84
2024-02-04T17:33:34.937Z,102133.47
2024-02-04T17:36:02.455Z,102129.09
2024-02-04T17:38:29.812Z,102129.06
2024-02-04T17:40:57.399Z,102134.38
2024-02-04T17:43:24.895Z,102129.09
2024-02-04T17:45:52.388Z,102111.41
2024-02-04T17:48:19.742Z,102112.50
2024-02-04T17:50:47.308Z,102101.91
2024-02-04T17:53:15.697Z,102108.97
2024-02-04T17:55:43.386Z,102103.59
2024-02-04T17:58:11.922Z,102108.16
2024-02-04T18:00:42.135Z,102108.97
2024-02-04T18:03:09.727Z,102105.47
2024-02-04T18:05:43.470Z,102113.47
2024-02-04T18:08:11.760Z,102109.84
2024-02-04T18:10:39.242Z,102111.69
2024-02-04T18:13:06.792Z,102120.41
2024-02-04T18:15:34.611Z,102113.44
2024-02-04T18:18:02.231Z,102118.50
2024-02-04T18:20:29.778Z,102109.56
2024-02-04T18:22:57.126Z,102109.53
2024-02-04T18:25:24.599Z,102111.31
2024-02-04T18:27:52.563Z,102103.50
2024-02-04T18:30:22.317Z,102100.78
2024-02-04T18:32:49.958Z,102113.81
2024-02-04T18:35:17.530Z,102122.59
2024-02-04T18:37:45.064Z,102114.75
2024-02-04T18:40:12.775Z,102117.22
2024-02-04T18:42:40.656Z,102119.00
2024-02-04T18:45:08.745Z,102119.75
2024-02-04T18:47:36.399Z,102120.53
2024-02-04T18:50:04.128Z,102132.63
2024-02-04T18:52:31.610Z,102122.78
2024-02-04T18:54:59.428Z,102123.59
2024-02-04T18:57:27.262Z,102123.59
2024-02-04T18:59:54.711Z,102138.50
2024-02-04T19:02:22.078Z,102135.91
2024-02-04T19:04:50.801Z,102136.75
2024-02-04T19:07:18.489Z,102128.84
2024-02-04T19:09:46.013Z,102137.69
2024-02-04T19:12:13.855Z,102129.59
2024-02-04T19:14:41.662Z,102131.38
2024-02-04T19:17:09.090Z,102122.53
2024-02-04T19:19:38.795Z,102121.69
2024-02-04T19:22:06.428Z,102124.38
2024-02-04T19:24:34.514Z,102105.06
2024-02-04T19:27:02.210Z,102105.75
2024-02-04T19:29:32.712Z,102112.81
2024-02-04T19:32:00.076Z,102116.31
2024-02-04T19:34:27.482Z,102115.47
2024-02-04T19:36:54.866Z,102101.47
2024-02-04T19:39:22.174Z,102105.75
2024-02-04T19:41:49.732Z,102095.97
2024-02-04T19:44:17.220Z,102097.03
2024-02-04T19:46:44.530Z,102113.81
2024-02-04T19:49:12.125Z,102108.44
2024-02-04T19:51:39.557Z,102115.47
2024-02-04T19:54:07.002Z,102113.66
2024-02-04T19:56:34.389Z,102111.88
2024-02-04T19:59:04.890Z,102097.78
2024-02-04T20:01:33.854Z,102108.41
2024-02-04T20:04:01.624Z,102101.19
2024-02-04T20:06:29.305Z,102092.56
2024-02-04T20:08:57.833Z,102100.41
2024-02-04T20:11:25.640Z,102103.88
2024-02-04T20:13:53.314Z,102102.94
2024-02-04T20:16:20.674Z,102091.66
2024-02-04T20:18:48.699Z,102109.16
2024-02-04T20:21:16.277Z,102088.09
2024-02-04T20:23:44.000Z,102080.97
2024-02-04T20:26:11.316Z,102089.81
2024-02-04T20:28:40.381Z,102096.72
2024-02-04T20:31:08.532Z,102104.78
2024-02-04T20:33:36.685Z,102115.22
2024-02-04T20:36:04.769Z,102091.47
2024-02-04T20:38:32.193Z,102088.84
2024-02-04T20:40:59.661Z,102095.03
2024-02-04T20:43:26.985Z,102104.63
2024-02-04T20:45:54.344Z,102099.25
2024-02-04T20:48:21.976Z,102102.00
2024-02-04T20:50:49.271Z,102110.75
2024-02-04T20:53:16.662Z,102095.69
2024-02-04T20:55:43.975Z,102102.00
2024-02-04T20:58:11.390Z,102091.38
2024-02-04T21:00:38.994Z,102099.22
2024-02-04T21:03:07.633Z,102094.75
2024-02-04T21:05:36.484Z,102106.25
2024-02-04T21:08:08.035Z,102100.09
2024-02-04T21:10:37.658Z,102114.09
2024-02-04T21:13:06.212Z,102113.28
2024-02-04T21:15:37.624Z,102111.53
2024-02-04T21:18:05.673Z,102105.38
2024-02-04T21:20:33.677Z,102095.63
2024-02-04T21:23:01.006Z,102099.09
2024-02-04T21:25:28.528Z,102099.06
2024-02-04T21:27:56.056Z,102107.91
2024-02-04T21:30:23.406Z,102100.81
2024-02-04T21:32:50.855Z,102095.53
2024-02-04T21:35:18.409Z,102094.69
2024-02-04T21:37:45.820Z,102096.38
2024-02-04T21:40:13.467Z,102088.44
2024-02-04T21:42:40.990Z,102091.91
2024-02-04T21:45:08.708Z,102096.31
2024-02-04T21:47:36.178Z,102092.69
2024-02-04T21:50:05.477Z,102092.66
2024-02-04T21:52:32.867Z,102090.13
2024-02-04T21:55:00.257Z,102104.06
2024-02-04T21:57:27.738Z,102106.91
2024-02-04T21:59:55.056Z,102104.13
2024-02-04T22:02:22.384Z,102093.53
2024-02-04T22:04:49.749Z,102108.44
2024-02-04T22:07:17.870Z,102098.84
2024-02-04T22:09:45.276Z,102113.75
2024-02-04T22:12:12.606Z,102117.34
2024-02-04T22:14:39.903Z,102119.88
2024-02-04T22:17:07.216Z,102107.66
2024-02-04T22:19:34.708Z,102113.91
2024-02-04T22:22:02.103Z,102112.06
2024-02-04T22:24:29.448Z,102117.38
2024-02-04T22:26:56.844Z,102115.59
2024-02-04T22:29:24.174Z,102122.53
2024-02-04T22:31:51.511Z,102125.19
2024-02-04T22:34:19.373Z,102123.50
2024-02-04T22:36:46.779Z,102120.03
2024-02-04T22:39:14.109Z,102120.03
2024-02-04T22:41:42.787Z,102117.38
2024-02-04T22:44:11.199Z,102110.22
2024-02-04T22:46:38.834Z,102107.59
2024-02-04T22:49:06.447Z,102127.91
2024-02-04T22:51:36.264Z,102117.38
2024-02-04T22:54:04.281Z,102121.59
2024-02-04T22:56:32.126Z,102132.19
2024-02-04T22:59:00.039Z,102126.91
2024-02-04T23:01:28.724Z,102125.22
2024-02-04T23:03:59.102Z,102122.66
2024-02-04T23:06:29.332Z,102117.28
2024-02-04T23:08:56.774Z,102125.28
2024-02-04T23:11:24.241Z,102127.81
2024-02-04T23:13:51.701Z,102120.63
2024-02-04T23:16:19.204Z,102120.75
2024-02-04T23:18:47.336Z,102127.75
2024-02-04T23:21:14.962Z,102133.06
2024-02-04T23:23:42.352Z,102135.66
2024-02-04T23:26:09.693Z,102133.03
2024-02-04T23:28:37.158Z,102133.63
2024-02-04T23:31:04.650Z,102124.09
2024-02-04T23:33:32.241Z,102125.63
2024-02-04T23:35:59.651Z,102129.16
2024-02-04T23:38:26.961Z,102122.00
2024-02-04T23:40:54.380Z,102140.47
2024-02-04T23:43:21.874Z,102140.31
2024-02-04T23:45:49.458Z,102142.84
2024-02-04T23:48:16.867Z,102154.16
2024-02-04T23:50:44.828Z,102136.47
2024-02-04T23:53:12.277Z,102154.94
2024-02-04T23:55:39.716Z,102151.88
2024-02-04T23:58:07.184Z,102158.81
